Calabogie, Canada
Current Conditions -  °F | °C
As of 9:00 AM on Thursday 29 Jan 2015 (Local Time) from CYOW Reporting Station
Broken Clouds Broken Clouds  
Wind Chill: -6°   Ceiling: 14000
Heat Index:   Visibility: 15mi
Dew Point: -2°   Wind: 6mph
Humidity: 72%   Direction: 70°ENE
Pressure: 30.19"   Gusts: NA
Location:  45.31°N, 76.72°W
Report Text: CYOW 291400Z 07005KT 15SM BKN140 M15/M19 A3019 RMK AC7 SLP233
Loading
Personal Weather Stations






























Interactive Weather Map New forecast layout! Learn more

10-Day Weather Forecast

Advertisements
Track Severe Weather on mobile